NVVV

Port Vila Bauerfield Airport

Port Vila, Vanuatu
TAF NVVV 241600Z 2418/2518 VRB03KT 9999 SCT020 BKN040 INTER 2418/2424 9000 -SHRA BKN018 BECMG 2420/2423 12010G20KT
Issued Valid From Valid To
Sep-24 @ 16:00 UTC
(4 hours ago)
Sep-24 @ 18:00 UTC
(2 hours ago)
Sep-25 @ 18:00 UTC
(in 22 hours)
Sep-24 @ 18:00 to Sep-24 @ 20:00
TAF NVVV 241600Z 2418/2518 VRB03KT 9999 SCT020 BKN040
Wind Visibility Clouds
Variable at 3 knots 10,000+ meters
  • Scattered at 2,000' AGL
  • Broken at 4,000' AGL
Temporary Sep-24 @ 18:00 to Sep-25 @ 00:00
INTER 2418/2424 9000 -SHRA BKN018
Visibility Clouds Conditions
8,996 meters
  • Broken at 1,800' AGL
  • Light Rain
Becoming Sep-24 @ 20:00 to Sep-25 @ 18:00
BECMG 2420/2423 12010G20KT
Wind Visibility Clouds
120° at 10 knots
 Gusting to 20 knots
10,000+ meters
  • Scattered at 2,000' AGL
  • Broken at 4,000' AGL
TAF NVVV 241600Z 2418/2518 VRB03KT 9999 SCT020 BKN040 INTER 2418/2424 9000 -SHRA BKN018 BECMG 2420/2423 12010G20KT
Issued Sep-24 @ 16:00 UTC
(4 hours ago)
Valid From Sep-24 @ 18:00 UTC
(2 hours ago)
Valid To Sep-25 @ 18:00 UTC
(in 22 hours)
Sep-24 @ 18:00 - Sep-24 @ 20:00
Wind Visibility
Variable at 3 knots 10,000+ meters
Clouds
  • Scattered at 2,000' AGL
  • Broken at 4,000' AGL
Temporary Sep-24 @ 18:00 - Sep-25 @ 00:00
Clouds
  • Broken at 1,800' AGL
Conditions
  • Light Rain
Becoming Sep-24 @ 20:00 - Sep-25 @ 18:00
Wind Visibility
120° at 10 knots
 Gusting to 20 knots
10,000+ meters
Clouds
  • Scattered at 2,000' AGL
  • Broken at 4,000' AGL